Time,TemperatureF,DewpointF,PressureIn,WindDirection,WindDirectionDegrees,WindSpeedMPH,WindSpeedGustMPH,Humidity,HourlyPrecipIn,Conditions,Clouds,dailyrainin,SoftwareType,DateUTC
2013-04-21 00:00:00,38.7,29.1,30.25,SE,129,7.0,13.0,68,0.00,,OVC070,0.00,VWS V14.01,2013-04-21 05:00:00,
2013-04-21 00:01:00,38.7,29.1,30.25,ESE,103,9.0,9.0,68,0.00,,OVC080,0.00,VWS V14.01,2013-04-21 05:01:00,
2013-04-21 00:06:00,38.8,28.8,30.25,East,98,10.0,13.0,67,0.00,,OVC080,0.00,VWS V14.01,2013-04-21 05:06:00,
2013-04-21 00:11:00,38.8,29.2,30.26,ESE,118,9.0,13.0,68,0.00,,OVC080,0.00,VWS V14.01,2013-04-21 05:11:00,
2013-04-21 00:16:00,38.7,29.1,30.26,East,95,8.0,13.0,68,0.00,,OVC080,0.00,VWS V14.01,2013-04-21 05:16:00,
2013-04-21 00:21:00,38.7,29.8,30.26,ESE,106,9.0,13.0,70,0.00,,OVC080,0.00,VWS V14.01,2013-04-21 05:21:00,
2013-04-21 00:26:00,38.8,29.2,30.27,SE,142,6.0,13.0,68,0.00,,OVC080,0.00,VWS V14.01,2013-04-21 05:26:00,
2013-04-21 00:30:00,38.8,28.8,30.27,SE,132,7.0,13.0,67,0.00,,OVC070,0.00,VWS V14.01,2013-04-21 05:30:00,
2013-04-21 00:31:00,38.8,29.2,30.27,SE,136,9.0,9.0,68,0.00,,OVC080,0.00,VWS V14.01,2013-04-21 05:31:00,
2013-04-21 00:36:00,38.9,29.2,30.29,SSE,155,4.0,11.0,68,0.00,,OVC080,0.00,VWS V14.01,2013-04-21 05:36:00,
2013-04-21 00:41:00,38.8,29.9,30.29,SE,143,5.0,11.0,70,0.00,,OVC080,0.00,VWS V14.01,2013-04-21 05:41:00,
2013-04-21 00:46:00,38.7,29.1,30.29,ESE,115,4.0,11.0,68,0.00,,OVC080,0.00,VWS V14.01,2013-04-21 05:46:00,
2013-04-21 00:51:00,38.7,29.8,30.29,SE,134,3.0,11.0,70,0.00,,OVC080,0.00,VWS V14.01,2013-04-21 05:51:00,
2013-04-21 00:56:00,38.6,30.4,30.29,ESE,115,3.0,11.0,72,0.00,,OVC080,0.00,VWS V14.01,2013-04-21 05:56:00,
2013-04-21 01:00:00,38.5,29.9,30.29,ESE,116,1.0,11.0,71,0.00,,OVC070,0.00,VWS V14.01,2013-04-21 06:00:00,
2013-04-21 01:01:00,38.5,29.9,30.29,ESE,117,2.0,2.0,71,0.00,,OVC044,0.00,VWS V14.01,2013-04-21 06:01:00,
2013-04-21 01:06:00,38.5,29.2,30.29,ESE,103,3.0,5.0,69,0.00,,OVC044,0.00,VWS V14.01,2013-04-21 06:06:00,
2013-04-21 01:11:00,38.6,29.7,30.29,ENE,74,1.0,5.0,70,0.00,,OVC044,0.00,VWS V14.01,2013-04-21 06:11:00,
2013-04-21 01:16:00,38.6,29.3,30.29,ESE,114,4.0,5.0,69,0.00,,OVC044,0.00,VWS V14.01,2013-04-21 06:16:00,
2013-04-21 01:21:00,38.6,29.7,30.29,East,85,2.0,5.0,70,0.00,,OVC044,0.00,VWS V14.01,2013-04-21 06:21:00,
2013-04-21 01:26:00,38.5,29.9,30.28,East,101,6.0,7.0,71,0.00,,OVC044,0.00,VWS V14.01,2013-04-21 06:26:00,
2013-04-21 01:30:00,38.5,29.9,30.28,ESE,104,5.0,7.0,71,0.00,,OVC070,0.00,VWS V14.01,2013-04-21 06:30:00,
2013-04-21 01:31:00,38.4,29.8,30.28,ESE,111,4.0,5.0,71,0.00,,OVC044,0.00,VWS V14.01,2013-04-21 06:31:00,
2013-04-21 01:36:00,38.4,29.8,30.28,ESE,110,7.0,9.0,71,0.00,,OVC044,0.00,VWS V14.01,2013-04-21 06:36:00,
2013-04-21 01:41:00,38.4,29.8,30.27,East,96,6.0,9.0,71,0.00,,OVC044,0.00,VWS V14.01,2013-04-21 06:41:00,
2013-04-21 01:46:00,38.3,30.1,30.26,East,96,8.0,10.0,72,0.00,,OVC044,0.00,VWS V14.01,2013-04-21 06:46:00,
2013-04-21 01:51:00,38.2,30.0,30.26,ESE,113,5.0,11.0,72,0.00,,OVC044,0.00,VWS V14.01,2013-04-21 06:51:00,
2013-04-21 01:56:00,38.1,29.9,30.26,ESE,120,6.0,11.0,72,0.00,,OVC044,0.00,VWS V14.01,2013-04-21 06:56:00,
2013-04-21 02:00:00,38.2,29.6,30.26,East,86,6.0,11.0,71,0.00,,OVC070,0.00,VWS V14.01,2013-04-21 07:00:00,
2013-04-21 02:01:00,38.2,29.6,30.26,ESE,110,7.0,7.0,71,0.00,,OVC050,0.00,VWS V14.01,2013-04-21 07:01:00,
2013-04-21 02:06:00,38.2,28.9,30.26,ESE,110,7.0,11.0,69,0.00,,OVC050,0.00,VWS V14.01,2013-04-21 07:06:00,
2013-04-21 02:11:00,38.1,29.9,30.27,ESE,120,9.0,11.0,72,0.00,,OVC050,0.00,VWS V14.01,2013-04-21 07:11:00,
2013-04-21 02:16:00,37.8,29.9,30.27,ESE,111,7.0,11.0,73,0.00,,OVC050,0.00,VWS V14.01,2013-04-21 07:16:00,
2013-04-21 02:21:00,37.7,29.8,30.27,ESE,113,9.0,11.0,73,0.00,,OVC050,0.00,VWS V14.01,2013-04-21 07:21:00,
2013-04-21 02:26:00,37.8,29.9,30.26,ESE,118,11.0,12.0,73,0.00,,OVC050,0.00,VWS V14.01,2013-04-21 07:26:00,
2013-04-21 02:30:00,37.8,30.3,30.27,SE,126,7.0,12.0,74,0.00,,OVC070,0.00,VWS V14.01,2013-04-21 07:30:00,
2013-04-21 02:31:00,37.8,30.3,30.26,ESE,118,8.0,8.0,74,0.00,,OVC050,0.00,VWS V14.01,2013-04-21 07:31:00,
2013-04-21 02:36:00,37.6,30.4,30.26,ESE,118,10.0,12.0,75,0.00,,OVC050,0.00,VWS V14.01,2013-04-21 07:36:00,
2013-04-21 02:41:00,37.7,29.8,30.25,ESE,116,11.0,13.0,73,0.00,,OVC050,0.00,VWS V14.01,2013-04-21 07:41:00,
2013-04-21 02:46:00,37.8,29.9,30.26,ESE,118,12.0,16.0,73,0.00,,OVC050,0.00,VWS V14.01,2013-04-21 07:46:00,
2013-04-21 02:51:00,37.7,30.2,30.26,SE,128,10.0,16.0,74,0.00,,OVC050,0.00,VWS V14.01,2013-04-21 07:51:00,
2013-04-21 02:56:00,37.6,30.7,30.26,ESE,118,10.0,16.0,76,0.00,,OVC050,0.00,VWS V14.01,2013-04-21 07:56:00,
2013-04-21 03:00:00,37.5,31.0,30.25,ESE,116,10.0,16.0,77,0.00,,OVC070,0.00,VWS V14.01,2013-04-21 08:00:00,
2013-04-21 03:01:00,37.5,31.0,30.25,ESE,116,10.0,16.0,77,0.00,,OVC090,0.00,VWS V14.01,2013-04-21 08:01:00,
2013-04-21 03:05:00,37.5,30.6,30.25,SE,128,12.0,14.0,76,0.00,,OVC090,0.00,VWS V14.01,2013-04-21 08:05:00,
2013-04-21 03:10:00,37.6,31.1,30.26,ESE,120,9.0,15.0,77,0.00,,OVC090,0.00,VWS V14.01,2013-04-21 08:10:00,
2013-04-21 03:15:00,37.5,31.3,30.26,SE,136,10.0,15.0,78,0.00,,OVC090,0.00,VWS V14.01,2013-04-21 08:15:00,
2013-04-21 03:20:00,37.5,31.6,30.26,SE,136,8.0,15.0,79,0.00,,OVC090,0.00,VWS V14.01,2013-04-21 08:20:00,
2013-04-21 03:25:00,37.4,31.5,30.25,SE,128,13.0,15.0,79,0.00,,OVC090,0.00,VWS V14.01,2013-04-21 08:25:00,
2013-04-21 03:30:00,37.4,31.5,30.26,SE,126,10.0,16.0,79,0.00,,OVC090,0.00,VWS V14.01,2013-04-21 08:30:00,
2013-04-21 03:35:00,37.4,31.8,30.25,SE,136,14.0,14.0,80,0.00,,OVC090,0.00,VWS V14.01,2013-04-21 08:35:00,
2013-04-21 03:40:00,37.4,31.5,30.26,SE,141,11.0,14.0,79,0.00,,OVC090,0.00,VWS V14.01,2013-04-21 08:40:00,
2013-04-21 03:45:00,37.3,31.7,30.25,SE,138,9.0,15.0,80,0.00,,OVC090,0.00,VWS V14.01,2013-04-21 08:45:00,
2013-04-21 03:50:00,37.2,31.6,30.25,SE,129,11.0,15.0,80,0.00,,OVC090,0.00,VWS V14.01,2013-04-21 08:50:00,
2013-04-21 03:55:00,37.2,31.6,30.25,SE,143,7.0,15.0,80,0.00,,OVC090,0.00,VWS V14.01,2013-04-21 08:55:00,
2013-04-21 04:00:00,37.0,31.4,30.25,SSE,149,10.0,15.0,80,0.00,,OVC032,0.00,VWS V14.01,2013-04-21 09:00:00,
2013-04-21 04:05:00,36.9,31.3,30.25,SE,136,12.0,16.0,80,0.00,,OVC032,0.00,VWS V14.01,2013-04-21 09:05:00,
2013-04-21 04:10:00,36.9,31.6,30.25,SE,125,14.0,16.0,81,0.00,,,0.00,VWS V14.01,2013-04-21 09:10:00,
2013-04-21 04:15:00,36.9,31.6,30.25,ESE,120,13.0,16.0,81,0.00,,,0.00,VWS V14.01,2013-04-21 09:15:00,
2013-04-21 04:20:00,36.6,31.6,30.25,SE,140,12.0,19.0,82,0.00,,,0.00,VWS V14.01,2013-04-21 09:20:00,
2013-04-21 08:39:00,37.8,34.3,30.24,SE,131,16.0,16.0,87,0.00,,,0.10,VWS V14.01,2013-04-21 13:39:00,
2013-04-21 08:44:00,38.1,34.9,30.22,ESE,117,20.0,22.0,88,0.10,,,0.10,VWS V14.01,2013-04-21 13:44:00,
2013-04-21 08:49:00,38.2,35.0,30.22,SSE,149,19.0,26.0,88,0.10,,OVC080,0.10,VWS V14.01,2013-04-21 13:49:00,
2013-04-21 08:54:00,38.4,35.2,30.21,SE,139,17.0,27.0,88,0.10,,OVC080,0.10,VWS V14.01,2013-04-21 13:54:00,
2013-04-21 08:59:00,38.7,35.2,30.21,SE,128,22.0,27.0,87,0.10,,OVC080,0.10,VWS V14.01,2013-04-21 13:59:00,
2013-04-21 09:04:00,38.9,35.4,30.21,ESE,123,20.0,30.0,87,0.00,,OVC070,0.10,VWS V14.01,2013-04-21 14:04:00,
2013-04-21 09:09:00,39.4,35.9,30.20,SE,136,23.0,30.0,87,0.00,,OVC070,0.10,VWS V14.01,2013-04-21 14:09:00,
2013-04-21 09:14:00,39.5,35.7,30.21,SE,132,25.0,30.0,86,0.00,,OVC070,0.10,VWS V14.01,2013-04-21 14:14:00,
2013-04-21 09:19:00,39.5,36.0,30.21,SE,137,17.0,30.0,87,0.00,,OVC070,0.10,VWS V14.01,2013-04-21 14:19:00,
2013-04-21 09:24:00,39.5,36.0,30.20,SE,134,24.0,30.0,87,0.00,,OVC070,0.10,VWS V14.01,2013-04-21 14:24:00,
2013-04-21 09:29:00,39.4,36.2,30.20,SE,126,16.0,30.0,88,0.00,,OVC070,0.10,VWS V14.01,2013-04-21 14:29:00,
2013-04-21 09:34:00,39.3,36.0,30.20,SE,139,23.0,27.0,88,0.00,,OVC070,0.10,VWS V14.01,2013-04-21 14:34:00,
2013-04-21 09:39:00,39.3,35.8,30.20,SSE,153,18.0,28.0,87,0.00,,OVC070,0.10,VWS V14.01,2013-04-21 14:39:00,
2013-04-21 09:44:00,39.3,35.5,30.20,SE,126,21.0,31.0,86,0.00,,OVC070,0.10,VWS V14.01,2013-04-21 14:44:00,
2013-04-21 09:49:00,39.3,35.5,30.21,SE,134,20.0,31.0,86,0.00,,OVC070,0.10,VWS V14.01,2013-04-21 14:49:00,
2013-04-21 09:54:00,39.3,35.8,30.20,SE,143,16.0,31.0,87,0.00,,OVC070,0.10,VWS V14.01,2013-04-21 14:54:00,
2013-04-21 09:59:00,39.3,35.8,30.20,SE,134,18.0,31.0,87,0.00,,OVC070,0.10,VWS V14.01,2013-04-21 14:59:00,
2013-04-21 10:04:00,39.3,35.5,30.21,SE,131,18.0,26.0,86,0.00,,OVC075,0.10,VWS V14.01,2013-04-21 15:04:00,
2013-04-21 10:09:00,39.5,35.7,30.20,SE,144,18.0,26.0,86,0.00,,OVC075,0.10,VWS V14.01,2013-04-21 15:09:00,
2013-04-21 10:14:00,39.7,36.2,30.20,SE,132,16.0,26.0,87,0.00,,OVC075,0.10,VWS V14.01,2013-04-21 15:14:00,
2013-04-21 10:19:00,40.1,36.5,30.20,SE,128,20.0,27.0,87,0.00,,OVC075,0.10,VWS V14.01,2013-04-21 15:19:00,
2013-04-21 10:24:00,40.4,36.5,30.20,SE,146,24.0,28.0,86,0.00,,OVC075,0.10,VWS V14.01,2013-04-21 15:24:00,
2013-04-21 10:29:00,40.7,36.5,30.20,SE,134,21.0,28.0,85,0.00,,OVC075,0.10,VWS V14.01,2013-04-21 15:29:00,
2013-04-21 10:34:00,41.0,36.5,30.20,SE,131,24.0,34.0,84,0.00,,OVC075,0.10,VWS V14.01,2013-04-21 15:34:00,
2013-04-21 10:39:00,41.3,36.8,30.19,SSE,153,19.0,34.0,84,0.00,,OVC075,0.10,VWS V14.01,2013-04-21 15:39:00,
2013-04-21 10:44:00,41.3,36.8,30.20,SSE,159,23.0,34.0,84,0.00,,OVC075,0.10,VWS V14.01,2013-04-21 15:44:00,
2013-04-21 10:49:00,41.5,37.3,30.19,SE,146,22.0,34.0,85,0.00,,OVC075,0.10,VWS V14.01,2013-04-21 15:49:00,
2013-04-21 10:54:00,41.5,36.7,30.19,SSE,158,17.0,34.0,83,0.00,,OVC075,0.10,VWS V14.01,2013-04-21 15:54:00,
2013-04-21 10:59:00,41.6,36.8,30.19,SSE,151,18.0,34.0,83,0.00,,OVC075,0.10,VWS V14.01,2013-04-21 15:59:00,
2013-04-21 11:04:00,41.7,36.6,30.19,SSE,152,26.0,29.0,82,0.00,,OVC080,0.10,VWS V14.01,2013-04-21 16:04:00,
2013-04-21 11:09:00,42.0,37.2,30.19,SE,142,18.0,30.0,83,0.00,,OVC080,0.10,VWS V14.01,2013-04-21 16:09:00,
2013-04-21 11:14:00,42.5,37.7,30.19,SSE,158,24.0,30.0,83,0.00,,OVC080,0.10,VWS V14.01,2013-04-21 16:14:00,
2013-04-21 11:19:00,43.1,38.6,30.18,SE,141,26.0,30.0,84,0.00,,OVC080,0.10,VWS V14.01,2013-04-21 16:19:00,
2013-04-21 11:24:00,43.7,38.6,30.18,SSE,153,19.0,30.0,82,0.00,,OVC080,0.10,VWS V14.01,2013-04-21 16:24:00,
2013-04-21 11:29:00,43.8,39.0,30.19,SSE,155,21.0,30.0,83,0.00,,OVC080,0.10,VWS V14.01,2013-04-21 16:29:00,
2013-04-21 11:34:00,43.8,38.0,30.19,SSE,156,20.0,31.0,80,0.00,,OVC080,0.10,VWS V14.01,2013-04-21 16:34:00,
2013-04-21 11:39:00,43.9,39.1,30.18,SE,146,23.0,31.0,83,0.00,,OVC080,0.10,VWS V14.01,2013-04-21 16:39:00,
2013-04-21 11:44:00,44.1,38.7,30.18,SE,139,18.0,31.0,81,0.00,,OVC080,0.10,VWS V14.01,2013-04-21 16:44:00,
2013-04-21 11:49:00,44.4,39.6,30.18,SSE,153,22.0,31.0,83,0.00,,OVC080,0.10,VWS V14.01,2013-04-21 16:49:00,
2013-04-21 11:54:00,44.4,39.3,30.18,SE,126,22.0,31.0,82,0.00,,OVC080,0.10,VWS V14.01,2013-04-21 16:54:00,
2013-04-21 11:59:00,44.8,40.0,30.18,SE,146,22.0,31.0,83,0.00,,OVC080,0.10,VWS V14.01,2013-04-21 16:59:00,
2013-04-21 12:04:00,45.2,39.7,30.17,SSE,159,21.0,29.0,81,0.00,,OVC110,0.10,VWS V14.01,2013-04-21 17:04:00,
2013-04-21 12:09:00,45.7,40.2,30.17,SSE,156,27.0,29.0,81,0.00,,OVC110,0.10,VWS V14.01,2013-04-21 17:09:00,
2013-04-21 12:14:00,46.4,40.6,30.17,SE,135,26.0,29.0,80,0.00,,OVC110,0.10,VWS V14.01,2013-04-21 17:14:00,
2013-04-21 12:19:00,46.5,40.7,30.17,SSE,148,23.0,29.0,80,0.00,,OVC110,0.10,VWS V14.01,2013-04-21 17:19:00,
2013-04-21 12:24:00,46.6,40.1,30.16,SE,142,21.0,29.0,78,0.00,,OVC110,0.10,VWS V14.01,2013-04-21 17:24:00,
2013-04-21 12:29:00,46.9,40.4,30.16,SE,143,14.0,29.0,78,0.00,,OVC110,0.10,VWS V14.01,2013-04-21 17:29:00,
2013-04-21 12:34:00,47.2,41.0,30.16,SSE,160,13.0,22.0,79,0.00,,OVC110,0.10,VWS V14.01,2013-04-21 17:34:00,
2013-04-21 12:39:00,47.4,40.6,30.16,SE,138,18.0,25.0,77,0.00,,OVC110,0.10,VWS V14.01,2013-04-21 17:39:00,
2013-04-21 12:44:00,47.7,41.5,30.16,SSE,151,20.0,25.0,79,0.00,,OVC110,0.10,VWS V14.01,2013-04-21 17:44:00,
2013-04-21 12:49:00,48.7,41.8,30.15,SSE,156,15.0,25.0,77,0.00,,OVC110,0.10,VWS V14.01,2013-04-21 17:49:00,
2013-04-21 12:54:00,49.5,42.3,30.15,SSE,158,19.0,25.0,76,0.00,,OVC110,0.10,VWS V14.01,2013-04-21 17:54:00,
2013-04-21 12:59:00,50.1,42.5,30.15,SSE,156,14.0,25.0,75,0.00,,OVC110,0.10,VWS V14.01,2013-04-21 17:59:00,
2013-04-21 13:04:00,51.0,42.7,30.14,SSE,150,21.0,26.0,73,0.00,,OVC075,0.10,VWS V14.01,2013-04-21 18:04:00,
2013-04-21 13:09:00,51.8,43.8,30.14,SE,138,18.0,26.0,74,0.00,,OVC075,0.10,VWS V14.01,2013-04-21 18:09:00,
2013-04-21 13:14:00,52.4,44.0,30.13,SSE,147,19.0,27.0,73,0.00,,OVC075,0.10,VWS V14.01,2013-04-21 18:14:00,
2013-04-21 13:19:00,52.7,43.2,30.13,SE,146,17.0,27.0,70,0.00,,OVC075,0.10,VWS V14.01,2013-04-21 18:19:00,
2013-04-21 13:24:00,52.8,42.5,30.13,SSE,149,25.0,27.0,68,0.00,,OVC075,0.10,VWS V14.01,2013-04-21 18:24:00,
2013-04-21 13:29:00,52.9,43.0,30.13,South,172,18.0,27.0,69,0.00,,OVC075,0.10,VWS V14.01,2013-04-21 18:29:00,
2013-04-21 13:34:00,53.0,43.5,30.12,SE,143,20.0,28.0,70,0.00,,OVC075,0.10,VWS V14.01,2013-04-21 18:34:00,
2013-04-21 13:39:00,53.3,43.8,30.13,SSE,153,19.0,28.0,70,0.00,,OVC075,0.10,VWS V14.01,2013-04-21 18:39:00,
2013-04-21 13:44:00,53.2,42.9,30.12,SE,143,19.0,28.0,68,0.00,,OVC075,0.10,VWS V14.01,2013-04-21 18:44:00,
2013-04-21 13:49:00,53.4,43.5,30.12,SSE,162,22.0,28.0,69,0.00,,OVC075,0.10,VWS V14.01,2013-04-21 18:49:00,
2013-04-21 13:54:00,53.4,43.5,30.12,SSE,149,17.0,28.0,69,0.00,,OVC075,0.10,VWS V14.01,2013-04-21 18:54:00,
2013-04-21 13:59:00,53.2,43.7,30.12,SE,136,20.0,30.0,70,0.00,,FEW085,0.10,VWS V14.01,2013-04-21 18:59:00,
2013-04-21 14:04:00,53.3,43.8,30.11,South,174,21.0,28.0,70,0.00,,FEW085,0.10,VWS V14.01,2013-04-21 19:04:00,
2013-04-21 14:09:00,53.7,44.9,30.11,SSE,150,17.0,28.0,72,0.00,,FEW085,0.10,VWS V14.01,2013-04-21 19:09:00,
2013-04-21 14:14:00,54.1,44.9,30.11,SE,133,18.0,28.0,71,0.00,,FEW085,0.10,VWS V14.01,2013-04-21 19:14:00,
2013-04-21 14:19:00,54.6,45.4,30.11,SE,145,24.0,28.0,71,0.00,,FEW085,0.10,VWS V14.01,2013-04-21 19:19:00,
2013-04-21 14:24:00,55.4,46.5,30.10,SSE,150,20.0,28.0,72,0.00,,FEW085,0.10,VWS V14.01,2013-04-21 19:24:00,
2013-04-21 14:29:00,56.1,45.7,30.10,SE,134,15.0,28.0,68,0.00,,FEW085,0.10,VWS V14.01,2013-04-21 19:29:00,
2013-04-21 14:34:00,56.4,45.2,30.09,SSE,149,23.0,27.0,66,0.00,,FEW085,0.10,VWS V14.01,2013-04-21 19:34:00,
2013-04-21 14:39:00,56.7,45.9,30.09,SSE,152,20.0,27.0,67,0.00,,FEW085,0.10,VWS V14.01,2013-04-21 19:39:00,
2013-04-21 14:44:00,57.6,46.7,30.08,SSE,153,17.0,27.0,67,0.00,,FEW085,0.10,VWS V14.01,2013-04-21 19:44:00,
2013-04-21 14:49:00,58.3,46.6,30.08,SE,141,20.0,27.0,65,0.00,,FEW085,0.10,VWS V14.01,2013-04-21 19:49:00,
2013-04-21 14:54:00,58.7,46.2,30.08,SSE,150,24.0,29.0,63,0.00,,FEW085,0.10,VWS V14.01,2013-04-21 19:54:00,
2013-04-21 14:59:00,59.1,46.5,30.08,SE,141,19.0,29.0,63,0.00,,FEW085,0.10,VWS V14.01,2013-04-21 19:59:00,
2013-04-21 15:04:00,59.8,47.2,30.07,SSE,150,17.0,24.0,63,0.00,,CLR,0.10,VWS V14.01,2013-04-21 20:04:00,
2013-04-21 15:09:00,60.3,45.5,30.07,SE,145,19.0,25.0,58,0.00,,CLR,0.10,VWS V14.01,2013-04-21 20:09:00,
2013-04-21 15:14:00,60.3,46.8,30.06,SSE,163,15.0,26.0,61,0.00,,CLR,0.10,VWS V14.01,2013-04-21 20:14:00,
2013-04-21 15:19:00,60.3,46.4,30.06,SSE,150,19.0,28.0,60,0.00,,CLR,0.10,VWS V14.01,2013-04-21 20:19:00,
2013-04-21 15:24:00,60.0,45.7,30.05,SE,143,23.0,28.0,59,0.00,,CLR,0.10,VWS V14.01,2013-04-21 20:24:00,
2013-04-21 15:29:00,60.3,45.9,30.05,SE,143,13.0,28.0,59,0.00,,CLR,0.10,VWS V14.01,2013-04-21 20:29:00,
2013-04-21 15:34:00,60.5,47.4,30.05,SSE,148,16.0,22.0,62,0.00,,CLR,0.10,VWS V14.01,2013-04-21 20:34:00,
2013-04-21 15:39:00,60.4,45.6,30.04,SSE,150,23.0,29.0,58,0.00,,CLR,0.10,VWS V14.01,2013-04-21 20:39:00,
2013-04-21 15:44:00,60.5,46.6,30.04,SSE,162,17.0,29.0,60,0.00,,CLR,0.10,VWS V14.01,2013-04-21 20:44:00,
2013-04-21 15:49:00,60.7,46.8,30.04,SSE,149,14.0,29.0,60,0.00,,CLR,0.10,VWS V14.01,2013-04-21 20:49:00,
2013-04-21 15:54:00,60.8,46.4,30.04,SE,136,20.0,29.0,59,0.00,,CLR,0.10,VWS V14.01,2013-04-21 20:54:00,
2013-04-21 15:59:00,61.0,46.6,30.03,SSE,159,25.0,29.0,59,0.00,,BKN095,0.10,VWS V14.01,2013-04-21 20:59:00,
2013-04-21 16:04:00,60.9,47.4,30.03,South,174,14.0,26.0,61,0.00,,BKN095,0.10,VWS V14.01,2013-04-21 21:04:00,
2013-04-21 16:09:00,60.7,47.6,30.03,SSE,149,16.0,26.0,62,0.00,,BKN095,0.10,VWS V14.01,2013-04-21 21:09:00,
2013-04-21 16:14:00,60.6,47.1,30.02,SSE,149,14.0,26.0,61,0.00,,BKN095,0.10,VWS V14.01,2013-04-21 21:14:00,
2013-04-21 16:19:00,60.5,47.0,30.02,SE,145,20.0,28.0,61,0.00,,BKN095,0.10,VWS V14.01,2013-04-21 21:19:00,
2013-04-21 16:24:00,60.4,46.5,30.02,SSE,148,18.0,28.0,60,0.00,,BKN095,0.10,VWS V14.01,2013-04-21 21:24:00,
2013-04-21 16:29:00,60.2,47.6,30.02,SSE,156,11.0,28.0,63,0.00,,BKN095,0.10,VWS V14.01,2013-04-21 21:29:00,
2013-04-21 16:34:00,59.9,47.3,30.02,SSE,159,12.0,20.0,63,0.00,,BKN095,0.10,VWS V14.01,2013-04-21 21:34:00,
2013-04-21 16:39:00,59.7,47.1,30.02,SSE,162,11.0,20.0,63,0.00,,BKN095,0.10,VWS V14.01,2013-04-21 21:39:00,
2013-04-21 16:44:00,59.7,47.9,30.02,SSE,147,13.0,20.0,65,0.00,,BKN095,0.10,VWS V14.01,2013-04-21 21:44:00,
2013-04-21 16:49:00,59.3,48.4,30.03,South,172,5.0,20.0,67,0.00,,BKN095,0.10,VWS V14.01,2013-04-21 21:49:00,
2013-04-21 16:54:00,58.0,47.5,30.03,South,177,30.0,38.0,68,0.01,,BKN095,0.11,VWS V14.01,2013-04-21 21:54:00,
2013-04-21 16:59:00,54.9,49.5,30.03,SSE,162,13.0,38.0,82,0.01,,BKN095,0.11,VWS V14.01,2013-04-21 21:59:00,
2013-04-21 17:04:00,54.2,50.1,30.03,SSE,161,16.0,23.0,86,0.01,,-RA,0.11,VWS V14.01,2013-04-21 22:04:00,
2013-04-21 17:09:00,54.2,50.4,30.03,SSW,207,14.0,23.0,87,0.01,,-RA,0.11,VWS V14.01,2013-04-21 22:09:00,
2013-04-21 17:14:00,54.5,50.4,30.03,SSW,211,10.0,23.0,86,0.01,,-RA,0.11,VWS V14.01,2013-04-21 22:14:00,
2013-04-21 17:19:00,55.6,48.2,30.03,SSE,165,8.0,23.0,76,0.01,,-RA,0.11,VWS V14.01,2013-04-21 22:19:00,
2013-04-21 17:24:00,55.9,47.4,30.03,South,181,7.0,23.0,73,0.01,,-RA,0.11,VWS V14.01,2013-04-21 22:24:00,
2013-04-21 17:29:00,55.7,47.5,30.05,West,281,12.0,23.0,74,0.01,,-RA,0.11,VWS V14.01,2013-04-21 22:29:00,
2013-04-21 17:34:00,55.2,47.4,30.06,West,264,8.0,21.0,75,0.01,,-RA,0.11,VWS V14.01,2013-04-21 22:34:00,
2013-04-21 17:39:00,53.8,47.5,30.05,WNW,285,11.0,21.0,79,0.01,,-RA,0.11,VWS V14.01,2013-04-21 22:39:00,
2013-04-21 17:44:00,52.8,48.1,30.06,West,260,13.0,21.0,84,0.02,,-RA,0.12,VWS V14.01,2013-04-21 22:44:00,
2013-04-21 17:49:00,52.1,48.0,30.07,WNW,285,11.0,21.0,86,0.02,,-RA,0.12,VWS V14.01,2013-04-21 22:49:00,
2013-04-21 17:54:00,51.8,48.1,30.07,West,278,5.0,21.0,87,0.05,,-RA,0.15,VWS V14.01,2013-04-21 22:54:00,
2013-04-21 17:59:00,51.6,48.2,30.07,West,260,2.0,21.0,88,0.06,,-RA,0.16,VWS V14.01,2013-04-21 22:59:00,
2013-04-21 18:04:00,51.4,48.3,30.06,West,263,1.0,7.0,89,0.06,,-RA,0.17,VWS V14.01,2013-04-21 23:04:00,
2013-04-21 18:09:00,51.3,48.5,30.08,WSW,249,5.0,8.0,90,0.06,,-RA,0.17,VWS V14.01,2013-04-21 23:09:00,
2013-04-21 18:14:00,51.3,48.5,30.07,WNW,286,1.0,10.0,90,0.06,,-RA,0.17,VWS V14.01,2013-04-21 23:14:00,
2013-04-21 18:19:00,51.5,48.4,30.07,NW,308,4.0,10.0,89,0.06,,-RA,0.17,VWS V14.01,2013-04-21 23:19:00,
2013-04-21 18:24:00,51.6,48.5,30.08,WNW,295,7.0,10.0,89,0.06,,-RA,0.17,VWS V14.01,2013-04-21 23:24:00,
2013-04-21 18:29:00,51.7,48.6,30.07,West,274,3.0,10.0,89,0.06,,-RA,0.17,VWS V14.01,2013-04-21 23:29:00,
2013-04-21 18:34:00,51.8,48.4,30.07,West,277,5.0,10.0,88,0.06,,-RA,0.17,VWS V14.01,2013-04-21 23:34:00,
2013-04-21 18:39:00,51.8,48.4,30.07,WSW,256,6.0,10.0,88,0.06,,-RA,0.17,VWS V14.01,2013-04-21 23:39:00,
2013-04-21 18:44:00,51.8,48.4,30.07,West,278,2.0,10.0,88,0.06,,-RA,0.17,VWS V14.01,2013-04-21 23:44:00,
2013-04-21 18:49:00,51.7,48.3,30.07,West,281,6.0,10.0,88,0.06,,-RA,0.17,VWS V14.01,2013-04-21 23:49:00,
2013-04-21 18:54:00,51.7,48.3,30.07,West,275,4.0,11.0,88,0.06,,-RA,0.17,VWS V14.01,2013-04-21 23:54:00,
2013-04-21 18:59:00,51.6,48.2,30.07,West,259,6.0,12.0,88,0.06,,-RA,0.17,VWS V14.01,2013-04-21 23:59:00,
2013-04-21 19:04:00,51.5,48.1,30.06,West,278,4.0,13.0,88,0.01,,OVC090,0.17,VWS V14.01,2013-04-22 00:04:00,
2013-04-21 19:09:00,51.6,47.9,30.06,WNW,290,9.0,13.0,87,0.01,,OVC090,0.17,VWS V14.01,2013-04-22 00:09:00,
2013-04-21 19:14:00,51.7,48.0,30.07,SW,231,9.0,13.0,87,0.01,,OVC090,0.17,VWS V14.01,2013-04-22 00:14:00,
2013-04-21 19:19:00,51.8,47.8,30.07,West,273,10.0,14.0,86,0.01,,OVC090,0.17,VWS V14.01,2013-04-22 00:19:00,
2013-04-21 19:24:00,51.7,48.0,30.07,West,261,6.0,14.0,87,0.02,,OVC090,0.18,VWS V14.01,2013-04-22 00:24:00,
2013-04-21 19:29:00,51.7,47.7,30.07,WSW,246,12.0,14.0,86,0.02,,OVC090,0.18,VWS V14.01,2013-04-22 00:29:00,
2013-04-21 19:34:00,51.7,47.7,30.08,WNW,288,8.0,11.0,86,0.01,,OVC090,0.18,VWS V14.01,2013-04-22 00:34:00,
2013-04-21 19:39:00,51.9,47.8,30.08,WSW,241,10.0,17.0,86,0.01,,OVC090,0.18,VWS V14.01,2013-04-22 00:39:00,
2013-04-21 19:44:00,51.7,48.0,30.08,SW,235,13.0,17.0,87,0.01,,OVC090,0.18,VWS V14.01,2013-04-22 00:44:00,
2013-04-21 19:49:00,51.6,47.6,30.07,South,171,6.0,17.0,86,0.02,,OVC090,0.19,VWS V14.01,2013-04-22 00:49:00,
2013-04-21 19:54:00,51.6,47.6,30.07,SSE,163,10.0,18.0,86,0.02,,OVC090,0.19,VWS V14.01,2013-04-22 00:54:00,
2013-04-21 19:59:00,51.6,47.6,30.07,SSW,196,7.0,19.0,86,0.02,,-RA,0.19,VWS V14.01,2013-04-22 00:59:00,
2013-04-21 20:04:00,51.4,47.0,30.07,SSW,192,11.0,18.0,85,0.02,,-RA,0.19,VWS V14.01,2013-04-22 01:04:00,
2013-04-21 20:09:00,51.5,47.2,30.07,SW,222,15.0,18.0,85,0.02,,-RA,0.19,VWS V14.01,2013-04-22 01:09:00,
2013-04-21 20:14:00,51.4,46.7,30.07,SSW,197,10.0,18.0,84,0.02,,-RA,0.19,VWS V14.01,2013-04-22 01:14:00,
2013-04-21 20:19:00,51.5,46.5,30.07,SSW,212,5.0,18.0,83,0.02,,-RA,0.19,VWS V14.01,2013-04-22 01:19:00,
2013-04-21 20:24:00,51.4,46.4,30.06,SSW,201,7.0,18.0,83,0.02,,-RA,0.19,VWS V14.01,2013-04-22 01:24:00,
2013-04-21 20:29:00,51.5,46.5,30.06,SW,217,12.0,18.0,83,0.02,,-RA,0.19,VWS V14.01,2013-04-22 01:29:00,
2013-04-21 20:34:00,51.4,46.7,30.07,SSW,204,8.0,14.0,84,0.01,,-RA,0.19,VWS V14.01,2013-04-22 01:34:00,
2013-04-21 20:39:00,51.2,46.5,30.07,SSW,209,7.0,15.0,84,0.01,,-RA,0.19,VWS V14.01,2013-04-22 01:39:00,
2013-04-21 20:44:00,51.1,46.8,30.08,SSW,201,8.0,15.0,85,0.01,,-RA,0.19,VWS V14.01,2013-04-22 01:44:00,
2013-04-21 20:49:00,51.0,46.7,30.08,SSE,158,4.0,15.0,85,0.01,,-RA,0.19,VWS V14.01,2013-04-22 01:49:00,
2013-04-21 20:54:00,50.9,46.6,30.08,SSW,208,10.0,15.0,85,0.01,,-RA,0.19,VWS V14.01,2013-04-22 01:54:00,
2013-04-21 20:59:00,51.1,46.8,30.08,SSE,159,9.0,15.0,85,0.01,,-RA,0.19,VWS V14.01,2013-04-22 01:59:00,
2013-04-21 21:04:00,51.1,47.1,30.09,SSW,199,14.0,16.0,86,0.01,,-RA,0.20,VWS V14.01,2013-04-22 02:04:00,
2013-04-21 21:09:00,51.0,47.0,30.09,SW,214,15.0,20.0,86,0.01,,-RA,0.20,VWS V14.01,2013-04-22 02:09:00,
2013-04-21 21:14:00,50.9,46.9,30.09,SSW,201,13.0,20.0,86,0.01,,-RA,0.20,VWS V14.01,2013-04-22 02:14:00,
2013-04-21 21:19:00,50.9,46.9,30.09,SW,231,18.0,20.0,86,0.01,,-RA,0.20,VWS V14.01,2013-04-22 02:19:00,
2013-04-21 21:24:00,50.9,47.2,30.09,South,190,7.0,20.0,87,0.01,,-RA,0.20,VWS V14.01,2013-04-22 02:24:00,
2013-04-21 21:29:00,50.8,47.1,30.09,SSW,212,8.0,20.0,87,0.01,,-RA,0.20,VWS V14.01,2013-04-22 02:29:00,
2013-04-21 21:34:00,50.9,47.2,30.10,South,183,4.0,12.0,87,0.01,,-RA,0.20,VWS V14.01,2013-04-22 02:34:00,
2013-04-21 21:39:00,50.8,47.1,30.11,WSW,249,7.0,12.0,87,0.02,,-RA,0.21,VWS V14.01,2013-04-22 02:39:00,
2013-04-21 21:44:00,50.8,47.1,30.11,SW,224,9.0,14.0,87,0.03,,-RA,0.22,VWS V14.01,2013-04-22 02:44:00,
2013-04-21 21:49:00,50.5,47.4,30.11,WSW,241,4.0,14.0,89,0.05,,-RA,0.24,VWS V14.01,2013-04-22 02:49:00,
2013-04-21 21:54:00,50.4,47.0,30.11,SW,229,10.0,15.0,88,0.05,,-RA,0.24,VWS V14.01,2013-04-22 02:54:00,
2013-04-21 21:59:00,50.9,46.9,30.10,South,170,11.0,19.0,86,0.05,,-RA,0.24,VWS V14.01,2013-04-22 02:59:00,
2013-04-21 22:04:00,51.2,47.2,30.10,SSE,163,13.0,14.0,86,0.05,,RA,0.24,VWS V14.01,2013-04-22 03:04:00,
2013-04-21 22:09:00,51.0,47.3,30.10,SW,214,9.0,17.0,87,0.05,,RA,0.24,VWS V14.01,2013-04-22 03:09:00,
2013-04-21 22:14:00,50.8,47.1,30.10,SSW,210,5.0,17.0,87,0.05,,RA,0.24,VWS V14.01,2013-04-22 03:14:00,
2013-04-21 22:19:00,50.6,47.2,30.11,SW,218,6.0,17.0,88,0.05,,RA,0.24,VWS V14.01,2013-04-22 03:19:00,
2013-04-21 22:24:00,50.5,47.1,30.11,SW,228,4.0,17.0,88,0.05,,RA,0.24,VWS V14.01,2013-04-22 03:24:00,
2013-04-21 22:29:00,50.2,47.1,30.10,SW,224,2.0,17.0,89,0.05,,RA,0.24,VWS V14.01,2013-04-22 03:29:00,
2013-04-21 22:34:00,50.1,47.0,30.10,SSW,211,6.0,7.0,89,0.04,,RA,0.24,VWS V14.01,2013-04-22 03:34:00,
2013-04-21 22:39:00,50.1,47.0,30.10,SW,218,6.0,9.0,89,0.04,,RA,0.24,VWS V14.01,2013-04-22 03:39:00,
2013-04-21 22:44:00,50.1,47.0,30.11,West,260,6.0,9.0,89,0.04,,RA,0.24,VWS V14.01,2013-04-22 03:44:00,
2013-04-21 22:49:00,50.0,46.9,30.11,WNW,284,3.0,9.0,89,0.04,,RA,0.24,VWS V14.01,2013-04-22 03:49:00,
2013-04-21 22:54:00,49.9,46.8,30.12,WNW,295,1.0,9.0,89,0.04,,RA,0.24,VWS V14.01,2013-04-22 03:54:00,
2013-04-21 22:59:00,49.8,47.0,30.12,West,280,0.0,9.0,90,0.04,,RA,0.24,VWS V14.01,2013-04-22 03:59:00,
2013-04-21 23:01:00,49.7,46.9,30.12,West,269,1.0,1.0,90,0.00,,OVC048,0.24,VWS V14.01,2013-04-22 04:01:00,
2013-04-21 23:06:00,49.7,46.9,30.12,West,274,2.0,5.0,90,0.00,,OVC048,0.24,VWS V14.01,2013-04-22 04:06:00,
2013-04-21 23:11:00,49.7,46.9,30.12,West,280,3.0,5.0,90,0.00,,OVC048,0.24,VWS V14.01,2013-04-22 04:11:00,
2013-04-21 23:16:00,49.7,46.9,30.12,WSW,246,3.0,5.0,90,0.00,,OVC048,0.24,VWS V14.01,2013-04-22 04:16:00,
2013-04-21 23:21:00,49.8,46.7,30.12,WSW,245,5.0,8.0,89,0.00,,OVC048,0.24,VWS V14.01,2013-04-22 04:21:00,
2013-04-21 23:26:00,50.0,46.6,30.13,West,260,5.0,9.0,88,0.00,,OVC048,0.24,VWS V14.01,2013-04-22 04:26:00,
2013-04-21 23:31:00,50.0,46.6,30.13,WSW,242,5.0,5.0,88,0.00,,OVC048,0.24,VWS V14.01,2013-04-22 04:31:00,
2013-04-21 23:36:00,50.1,46.7,30.12,SSW,200,4.0,10.0,88,0.00,,OVC048,0.24,VWS V14.01,2013-04-22 04:36:00,
2013-04-21 23:41:00,50.0,46.6,30.13,WNW,284,3.0,10.0,88,0.00,,OVC048,0.24,VWS V14.01,2013-04-22 04:41:00,
2013-04-21 23:46:00,49.8,46.7,30.13,West,267,2.0,10.0,89,0.00,,OVC035,0.24,VWS V14.01,2013-04-22 04:46:00,
2013-04-21 23:51:00,49.6,46.8,30.13,West,260,2.0,10.0,90,0.00,,OVC035,0.24,VWS V14.01,2013-04-22 04:51:00,
2013-04-21 23:56:00,49.4,46.9,30.13,WSW,249,3.0,10.0,91,0.00,,OVC035,0.24,VWS V14.01,2013-04-22 04:56:00,